Time;durP1;ratioP1;P1;durP2;ratioP2;P2;SDS_P1;SDS_P2;PMS_P1;PMS_P2;Temp;Humidity;BMP_temperature;BMP_pressure;BME280_temperature;BME280_humidity;BME280_pressure;Samples;Min_cycle;Max_cycle;Signal;HPM_P1;HPM_P2
2022/06/21 00:01:00;;;;;;;1.05;0.90;;;11.10;91.80;;;;;;5006061;28;20420;-80
2022/06/21 00:03:27;;;;;;;1.52;1.13;;;11.00;92.00;;;;;;4993771;28;20034;-80
2022/06/21 00:05:53;;;;;;;1.75;0.98;;;11.00;92.20;;;;;;5002840;28;20037;-80
2022/06/21 00:08:23;;;;;;;1.10;1.00;;;10.90;92.20;;;;;;5006761;28;20030;-80
2022/06/21 00:10:49;;;;;;;2.13;1.27;;;10.90;92.30;;;;;;5010947;28;20125;-80
2022/06/21 00:13:21;;;;;;;2.15;1.20;;;10.90;92.30;;;;;;5006930;28;20061;-81
2022/06/21 00:15:52;;;;;;;1.77;1.23;;;10.80;92.30;;;;;;5012738;28;20457;-80
2022/06/21 00:18:20;;;;;;;1.48;1.15;;;10.70;92.50;;;;;;5010996;28;20030;-80
2022/06/21 00:20:47;;;;;;;2.45;1.52;;;10.70;92.90;;;;;;5002052;28;20026;-80
2022/06/21 00:23:22;;;;;;;3.38;1.00;;;10.70;92.90;;;;;;5006731;28;20088;-80
2022/06/21 00:25:49;;;;;;;3.70;1.25;;;10.60;93.00;;;;;;5006486;28;20061;-80
2022/06/21 00:28:15;;;;;;;1.27;1.13;;;10.60;93.20;;;;;;4990416;28;20041;-79
2022/06/21 00:30:42;;;;;;;1.92;1.20;;;10.60;93.50;;;;;;5011438;28;20045;-79
2022/06/21 00:33:12;;;;;;;1.90;1.15;;;10.50;93.50;;;;;;5005968;28;20521;-79
2022/06/21 00:35:41;;;;;;;2.42;0.90;;;10.50;93.90;;;;;;5003861;28;20037;-79
2022/06/21 00:38:11;;;;;;;1.45;1.30;;;10.40;94.00;;;;;;5011857;28;20030;-79
2022/06/21 00:40:37;;;;;;;1.30;1.20;;;10.40;94.30;;;;;;5016975;28;20032;-79
2022/06/21 00:43:16;;;;;;;1.90;1.02;;;10.30;94.60;;;;;;5011436;28;20030;-80
2022/06/21 00:45:44;;;;;;;2.22;1.50;;;10.30;94.80;;;;;;5011192;28;20044;-78
2022/06/21 00:48:18;;;;;;;1.40;1.00;;;10.20;94.70;;;;;;5008611;28;20022;-79
2022/06/21 00:50:48;;;;;;;2.33;1.40;;;10.20;94.70;;;;;;5009768;28;20030;-79
2022/06/21 00:53:24;;;;;;;2.17;1.20;;;10.10;94.80;;;;;;5002279;28;20447;-79
2022/06/21 00:56:11;;;;;;;1.75;1.27;;;10.10;95.00;;;;;;5013547;28;20030;-80
2022/06/21 00:58:36;;;;;;;1.75;1.10;;;10.10;95.30;;;;;;5007584;28;20034;-79
2022/06/21 01:01:04;;;;;;;1.30;1.20;;;10.00;95.40;;;;;;5001580;28;20030;-79
2022/06/21 01:03:54;;;;;;;1.20;1.10;;;10.00;95.50;;;;;;5011234;28;20026;-79
2022/06/21 01:06:29;;;;;;;2.20;1.60;;;10.00;95.50;;;;;;5015624;28;20558;-79
2022/06/21 01:09:02;;;;;;;1.90;1.30;;;10.00;95.60;;;;;;5018754;28;20038;-79
2022/06/21 01:11:37;;;;;;;3.33;1.55;;;10.00;95.80;;;;;;5007172;28;20030;-79
2022/06/21 01:14:04;;;;;;;2.17;1.10;;;9.90;95.80;;;;;;4996401;28;20053;-79
2022/06/21 01:16:31;;;;;;;1.67;1.15;;;9.90;96.00;;;;;;5012484;28;20050;-79
2022/06/21 01:18:59;;;;;;;2.97;0.95;;;9.90;96.10;;;;;;5000842;28;20061;-80
2022/06/21 01:21:25;;;;;;;1.90;1.33;;;9.90;96.10;;;;;;5008426;28;20034;-79
2022/06/21 01:23:56;;;;;;;2.25;1.38;;;9.90;96.00;;;;;;5009805;28;20033;-80
2022/06/21 01:26:40;;;;;;;3.30;1.50;;;9.90;96.00;;;;;;5002951;28;20559;-79
2022/06/21 01:29:13;;;;;;;1.10;1.00;;;10.00;95.90;;;;;;5008745;28;20031;-79
2022/06/21 01:31:39;;;;;;;1.20;1.10;;;10.00;95.90;;;;;;5008757;28;20036;-80
2022/06/21 01:34:20;;;;;;;2.05;1.10;;;10.00;95.90;;;;;;5000732;28;20034;-80
2022/06/21 01:36:51;;;;;;;1.30;1.20;;;10.00;95.90;;;;;;5022630;28;20099;-79
2022/06/21 01:39:33;;;;;;;1.33;1.13;;;10.00;95.90;;;;;;5000917;28;20515;-80
2022/06/21 01:42:09;;;;;;;1.13;1.00;;;10.00;95.90;;;;;;5015441;28;20044;-80
2022/06/21 01:44:39;;;;;;;1.35;1.23;;;10.00;96.30;;;;;;5006438;28;20034;-79
2022/06/21 01:47:12;;;;;;;1.15;1.05;;;10.00;95.90;;;;;;5011002;28;20492;-79
2022/06/21 01:49:45;;;;;;;0.95;0.85;;;10.00;95.90;;;;;;4995432;28;20408;-80
2022/06/21 01:52:19;;;;;;;1.30;1.20;;;10.00;96.00;;;;;;5008664;28;20035;-79
2022/06/21 01:54:59;;;;;;;1.30;1.05;;;9.90;96.10;;;;;;5002290;28;20473;-79
2022/06/21 01:57:26;;;;;;;1.70;1.33;;;9.90;96.20;;;;;;5003691;28;20045;-80
2022/06/21 01:59:53;;;;;;;1.65;1.10;;;9.90;96.10;;;;;;5003280;28;20038;-79
2022/06/21 02:02:29;;;;;;;1.55;1.35;;;9.90;96.00;;;;;;4991452;28;20612;-79
2022/06/21 02:04:58;;;;;;;1.70;1.17;;;9.90;96.10;;;;;;4995832;28;20042;-79
2022/06/21 02:07:30;;;;;;;2.75;1.48;;;9.90;96.20;;;;;;5005398;28;20465;-79
2022/06/21 02:10:11;;;;;;;4.63;1.30;;;9.80;96.20;;;;;;5004369;28;20058;-79
2022/06/21 02:12:43;;;;;;;1.75;1.45;;;9.80;96.30;;;;;;5023548;28;20389;-79
2022/06/21 02:15:19;;;;;;;2.00;1.40;;;9.80;96.40;;;;;;4999583;28;20034;-80
2022/06/21 02:17:47;;;;;;;1.33;1.20;;;9.80;96.30;;;;;;5004719;28;20046;-80
2022/06/21 02:20:29;;;;;;;1.70;1.38;;;9.80;96.30;;;;;;5014221;28;20030;-80
2022/06/21 02:22:55;;;;;;;4.63;1.50;;;9.80;96.50;;;;;;5006427;28;20026;-80
2022/06/21 02:25:23;;;;;;;1.45;1.33;;;9.80;96.60;;;;;;5009767;28;20400;-80
2022/06/21 02:27:52;;;;;;;2.30;1.38;;;9.80;97.00;;;;;;5008307;28;20089;-80
2022/06/21 02:30:22;;;;;;;2.83;1.70;;;9.80;96.70;;;;;;4998757;28;20066;-80
2022/06/21 02:32:49;;;;;;;3.83;1.52;;;9.80;96.60;;;;;;5012923;28;20040;-80
2022/06/21 02:35:36;;;;;;;1.52;1.42;;;9.80;96.70;;;;;;5009083;28;20026;-80
2022/06/21 02:38:05;;;;;;;1.65;1.45;;;9.70;96.70;;;;;;5006055;28;20481;-80
2022/06/21 02:40:35;;;;;;;1.42;1.33;;;9.70;96.90;;;;;;5007760;28;21407;-80
2022/06/21 02:43:08;;;;;;;1.50;1.40;;;9.60;97.30;;;;;;5005169;28;20038;-79
2022/06/21 02:45:49;;;;;;;1.88;1.38;;;9.60;97.20;;;;;;5014718;28;20025;-79
2022/06/21 02:48:19;;;;;;;2.25;1.30;;;9.60;97.20;;;;;;5009030;28;20034;-80
2022/06/21 02:50:51;;;;;;;2.28;1.60;;;9.50;97.50;;;;;;5015194;28;20033;-80
2022/06/21 02:53:30;;;;;;;1.70;1.13;;;9.50;97.20;;;;;;4999014;28;20038;-80
2022/06/21 02:56:21;;;;;;;1.55;1.13;;;9.50;97.20;;;;;;4997617;28;20072;-81
2022/06/21 02:58:51;;;;;;;2.00;1.35;;;9.50;97.20;;;;;;5008398;28;20065;-80
2022/06/21 03:01:19;;;;;;;1.83;1.20;;;9.40;97.30;;;;;;5008589;28;20647;-80
2022/06/21 03:03:47;;;;;;;2.53;1.38;;;9.30;97.20;;;;;;5006880;28;20065;-80
2022/06/21 03:06:16;;;;;;;1.83;1.10;;;9.30;97.20;;;;;;5014200;28;20030;-80
2022/06/21 03:08:53;;;;;;;1.40;1.15;;;9.30;97.20;;;;;;4994028;28;20029;-80
2022/06/21 03:11:23;;;;;;;1.98;1.10;;;9.30;97.40;;;;;;5040739;28;20393;-81
2022/06/21 03:13:49;;;;;;;3.38;2.20;;;9.20;97.60;;;;;;5005330;28;20098;-79
2022/06/21 03:16:18;;;;;;;4.32;1.27;;;9.20;97.60;;;;;;5015036;28;20029;-80
2022/06/21 03:18:57;;;;;;;1.98;1.00;;;9.20;97.70;;;;;;5014872;28;20034;-80
2022/06/21 03:21:30;;;;;;;1.20;1.10;;;9.20;97.70;;;;;;5004644;28;20401;-80
2022/06/21 03:23:57;;;;;;;2.92;1.52;;;9.30;97.60;;;;;;5000042;28;20616;-80
2022/06/21 03:26:26;;;;;;;3.28;1.20;;;9.20;97.40;;;;;;5012236;28;20032;-80
2022/06/21 03:28:53;;;;;;;1.77;1.30;;;9.20;97.50;;;;;;5004347;28;20026;-80
2022/06/21 03:31:31;;;;;;;2.08;1.40;;;9.20;97.70;;;;;;5012533;28;20038;-80
2022/06/21 03:34:05;;;;;;;5.20;1.30;;;9.20;97.80;;;;;;5009627;28;20041;-80
2022/06/21 03:36:31;;;;;;;1.60;1.45;;;9.20;98.00;;;;;;5011639;28;20061;-80
2022/06/21 03:39:04;;;;;;;4.53;1.55;;;9.10;98.10;;;;;;5005538;28;20030;-79
2022/06/21 03:41:46;;;;;;;1.35;1.25;;;9.10;98.10;;;;;;5016713;28;20034;-80
2022/06/21 03:44:21;;;;;;;3.13;1.17;;;9.10;98.10;;;;;;4997476;28;20076;-80
2022/06/21 03:47:14;;;;;;;2.17;1.50;;;9.10;98.20;;;;;;5015096;28;20038;-80
2022/06/21 03:50:07;;;;;;;1.70;1.40;;;9.10;98.30;;;;;;5005207;28;20053;-80
2022/06/21 03:52:44;;;;;;;1.67;1.55;;;9.10;98.50;;;;;;5011475;28;20118;-80
2022/06/21 03:55:24;;;;;;;1.60;1.45;;;9.10;98.60;;;;;;5002998;28;20393;-81
2022/06/21 03:58:11;;;;;;;2.63;1.33;;;9.10;99.00;;;;;;5010931;28;20552;-80
2022/06/21 04:00:49;;;;;;;1.17;1.08;;;9.10;99.30;;;;;;5001106;28;20501;-80
2022/06/21 04:03:28;;;;;;;3.08;1.30;;;9.10;99.30;;;;;;5004631;28;20034;-81
2022/06/21 04:06:11;;;;;;;1.70;1.30;;;9.10;99.30;;;;;;5012615;28;20026;-79
2022/06/21 04:09:07;;;;;;;1.50;1.23;;;9.20;99.50;;;;;;5003120;28;20042;-80
2022/06/21 04:11:38;;;;;;;1.48;1.38;;;9.20;99.00;;;;;;5020656;28;20045;-80
2022/06/21 04:14:10;;;;;;;2.10;1.90;;;9.20;99.20;;;;;;5009518;28;20030;-80
2022/06/21 04:16:46;;;;;;;2.30;1.50;;;9.30;99.40;;;;;;5012110;28;20030;-80
2022/06/21 04:19:41;;;;;;;;;;;9.30;99.50;;;;;;5008187;28;20388;-80
2022/06/21 04:22:17;;;;;;;1.48;1.25;;;9.30;99.50;;;;;;5006171;28;20423;-80
2022/06/21 04:25:25;;;;;;;1.67;1.33;;;9.30;99.60;;;;;;4995857;28;20037;-80
2022/06/21 04:28:33;;;;;;;2.65;1.50;;;9.40;99.50;;;;;;5000109;28;20045;-79
2022/06/21 04:31:02;;;;;;;3.88;1.70;;;9.40;99.50;;;;;;5017628;28;20435;-81
2022/06/21 04:33:36;;;;;;;1.33;1.20;;;9.50;99.60;;;;;;4996305;28;20451;-79
2022/06/21 04:36:23;;;;;;;1.50;1.40;;;9.60;99.70;;;;;;5012487;28;20037;-80
2022/06/21 04:39:13;;;;;;;3.50;1.60;;;9.60;99.70;;;;;;5009365;28;20038;-79
2022/06/21 04:41:51;;;;;;;1.80;1.70;;;9.60;99.60;;;;;;5005559;28;20030;-78
2022/06/21 04:44:39;;;;;;;1.67;1.17;;;9.70;99.80;;;;;;5008968;28;20034;-78
2022/06/21 04:47:29;;;;;;;3.28;1.70;;;9.70;99.80;;;;;;5022071;28;20374;-79
2022/06/21 04:50:04;;;;;;;2.97;1.77;;;9.80;99.70;;;;;;5021098;28;20037;-78
2022/06/21 04:52:43;;;;;;;2.72;1.77;;;9.80;99.80;;;;;;5029100;28;20026;-78
2022/06/21 04:55:15;;;;;;;2.15;1.88;;;9.90;99.90;;;;;;5003981;28;20045;-79
2022/06/21 04:57:41;;;;;;;1.58;1.48;;;9.90;99.90;;;;;;5030214;28;20034;-78
2022/06/21 05:00:15;;;;;;;2.05;1.85;;;10.00;99.80;;;;;;5002405;28;20057;-79
2022/06/21 05:02:43;;;;;;;2.90;1.70;;;10.10;99.90;;;;;;5006063;28;20038;-78
2022/06/21 05:05:20;;;;;;;2.17;1.45;;;10.20;99.90;;;;;;5007215;28;20034;-78
2022/06/21 05:08:21;;;;;;;2.92;1.77;;;10.30;99.90;;;;;;5015993;28;20041;-78
2022/06/21 05:10:50;;;;;;;2.08;1.88;;;10.40;99.90;;;;;;5041987;28;20064;-78
2022/06/21 05:13:31;;;;;;;3.53;2.10;;;10.40;99.90;;;;;;5023935;28;20048;-78
2022/06/21 05:16:01;;;;;;;2.38;1.85;;;10.40;99.90;;;;;;5023755;28;20059;-78
2022/06/21 05:18:33;;;;;;;2.47;2.28;;;10.50;99.90;;;;;;5019591;28;20037;-78
2022/06/21 05:21:05;;;;;;;3.50;1.90;;;10.50;99.90;;;;;;5032493;28;20037;-78
2022/06/21 05:23:32;;;;;;;4.80;1.90;;;10.70;99.90;;;;;;5036041;28;20053;-78
2022/06/21 05:26:02;;;;;;;3.00;2.13;;;10.80;99.90;;;;;;5005737;28;20040;-78
2022/06/21 05:28:34;;;;;;;1.90;1.70;;;11.00;99.90;;;;;;5006275;28;20034;-78
2022/06/21 05:31:07;;;;;;;1.52;1.42;;;11.30;99.60;;;;;;5020778;28;20026;-78
2022/06/21 05:33:44;;;;;;;2.65;2.00;;;11.60;98.80;;;;;;5022862;28;20040;-78
2022/06/21 05:36:15;;;;;;;1.65;1.40;;;12.20;97.40;;;;;;5037522;28;20035;-78
2022/06/21 05:39:00;;;;;;;2.75;1.45;;;12.70;96.80;;;;;;5032994;28;20034;-78
2022/06/21 05:41:31;;;;;;;2.90;1.33;;;13.40;95.90;;;;;;5016402;28;20034;-78
2022/06/21 05:44:19;;;;;;;3.58;1.90;;;14.00;94.20;;;;;;5023385;28;20038;-79
2022/06/21 05:46:50;;;;;;;3.92;1.90;;;14.60;93.30;;;;;;5021583;28;20025;-79
2022/06/21 05:49:36;;;;;;;3.50;1.83;;;14.90;92.20;;;;;;5009338;28;20061;-80
2022/06/21 05:52:06;;;;;;;2.47;1.90;;;15.20;91.70;;;;;;5022601;28;20041;-79
2022/06/21 05:54:36;;;;;;;4.53;2.40;;;15.60;91.40;;;;;;4993235;28;20497;-79
2022/06/21 05:57:05;;;;;;;2.15;1.73;;;16.00;90.30;;;;;;5023509;28;20246;-79
2022/06/21 05:59:31;;;;;;;4.28;1.88;;;16.40;90.00;;;;;;5014248;28;20034;-79
2022/06/21 06:02:01;;;;;;;2.15;1.45;;;16.60;89.00;;;;;;5024995;28;20021;-79
2022/06/21 06:04:36;;;;;;;2.35;1.52;;;17.10;87.70;;;;;;5010588;28;20668;-79
2022/06/21 06:07:04;;;;;;;1.70;1.60;;;17.40;86.10;;;;;;5018561;28;20038;-79
2022/06/21 06:09:39;;;;;;;3.88;1.75;;;17.70;85.70;;;;;;4995275;28;20433;-78
2022/06/21 06:12:08;;;;;;;2.70;1.90;;;18.10;82.30;;;;;;5026784;28;20049;-78
2022/06/21 06:14:39;;;;;;;1.65;1.55;;;18.30;81.30;;;;;;5031931;28;20089;-80
2022/06/21 06:17:36;;;;;;;2.10;1.83;;;18.50;79.00;;;;;;5026616;28;20037;-78
2022/06/21 06:20:12;;;;;;;3.10;1.50;;;18.30;76.90;;;;;;5002964;28;20072;-77
2022/06/21 06:22:49;;;;;;;3.95;1.50;;;18.50;77.50;;;;;;4999386;28;20030;-79
2022/06/21 06:25:25;;;;;;;1.88;1.30;;;18.80;76.90;;;;;;5013190;28;20044;-80
2022/06/21 06:28:09;;;;;;;;;;;19.30;76.00;;;;;;5014649;28;20064;-79
2022/06/21 06:30:53;;;;;;;1.55;1.45;;;19.90;73.70;;;;;;5012915;28;19910;-80
2022/06/21 06:33:29;;;;;;;1.90;1.55;;;20.50;71.10;;;;;;5003312;28;20042;-80
2022/06/21 06:35:59;;;;;;;2.35;1.10;;;21.00;69.20;;;;;;5025303;28;20022;-80
2022/06/21 06:38:26;;;;;;;3.63;1.40;;;21.50;66.70;;;;;;5006436;28;20022;-80
2022/06/21 06:41:11;;;;;;;3.83;1.25;;;21.90;64.40;;;;;;5022582;28;20030;-80
2022/06/21 06:43:53;;;;;;;1.48;1.35;;;22.20;64.20;;;;;;5016544;28;20040;-79
2022/06/21 06:46:33;;;;;;;2.70;1.40;;;22.10;64.60;;;;;;4994305;28;20038;-79
2022/06/21 06:49:22;;;;;;;2.33;1.20;;;22.60;63.50;;;;;;5011484;28;20098;-79
2022/06/21 06:52:19;;;;;;;2.00;1.70;;;22.70;59.60;;;;;;5028293;28;20037;-79
2022/06/21 06:55:11;;;;;;;1.40;1.30;;;22.50;60.00;;;;;;5014560;28;20037;-79
2022/06/21 06:57:40;;;;;;;2.67;1.20;;;22.30;59.70;;;;;;5000711;28;20386;-79
2022/06/21 07:00:19;;;;;;;2.35;1.38;;;22.30;58.10;;;;;;5007849;28;20111;-79
2022/06/21 07:03:00;;;;;;;4.88;1.42;;;22.20;60.00;;;;;;5007346;28;20038;-80
2022/06/21 07:05:54;;;;;;;1.52;1.42;;;22.30;59.10;;;;;;5010589;28;20030;-79
2022/06/21 07:09:08;;;;;;;3.42;1.30;;;22.40;59.50;;;;;;5010202;28;20045;-79
2022/06/21 07:11:40;;;;;;;1.73;1.00;;;22.60;59.50;;;;;;5006207;28;20046;-79
2022/06/21 07:14:16;;;;;;;3.08;1.38;;;23.30;57.90;;;;;;5000182;28;20097;-79
2022/06/21 07:16:43;;;;;;;2.50;1.00;;;23.90;56.90;;;;;;5007418;28;20072;-80
2022/06/21 07:19:11;;;;;;;2.25;1.23;;;24.50;54.90;;;;;;4991070;28;20042;-79
2022/06/21 07:21:38;;;;;;;1.48;1.02;;;24.90;53.10;;;;;;4999659;28;20061;-79
2022/06/21 07:24:13;;;;;;;2.13;1.02;;;24.70;53.40;;;;;;5007008;28;20042;-79
2022/06/21 07:26:51;;;;;;;2.90;1.27;;;25.00;52.20;;;;;;5009660;28;20055;-78
2022/06/21 07:29:32;;;;;;;2.72;0.95;;;25.10;49.20;;;;;;5041389;28;20116;-79
2022/06/21 07:32:05;;;;;;;1.13;0.90;;;24.90;52.90;;;;;;5015204;28;20030;-79
2022/06/21 07:34:44;;;;;;;3.28;1.10;;;25.00;52.60;;;;;;5010842;28;20037;-79
2022/06/21 07:37:24;;;;;;;3.10;1.40;;;24.90;50.40;;;;;;5017292;28;20030;-78
2022/06/21 07:39:56;;;;;;;2.67;1.30;;;25.00;49.60;;;;;;5007734;28;20044;-78
2022/06/21 07:42:32;;;;;;;2.83;1.00;;;24.60;50.60;;;;;;5016996;28;20181;-78
2022/06/21 07:45:18;;;;;;;2.90;1.17;;;24.60;53.70;;;;;;5017324;28;20089;-78
2022/06/21 07:48:03;;;;;;;1.50;1.10;;;24.40;52.80;;;;;;5000714;28;20193;-78
2022/06/21 07:50:40;;;;;;;1.92;1.08;;;24.50;52.50;;;;;;5014415;28;20142;-78
2022/06/21 07:53:32;;;;;;;4.40;1.48;;;24.70;52.30;;;;;;5016898;28;20037;-78
2022/06/21 07:56:02;;;;;;;1.90;0.90;;;24.80;51.90;;;;;;5020997;28;20483;-78
2022/06/21 07:58:41;;;;;;;1.95;1.08;;;24.90;50.10;;;;;;5017170;28;20041;-79
2022/06/21 08:07:23;;;;;;;2.45;0.90;;;24.00;53.30;;;;;;5020998;28;20125;-78
2022/06/21 08:09:58;;;;;;;4.40;1.00;;;23.80;52.80;;;;;;5015198;28;20061;-78
2022/06/21 08:12:24;;;;;;;;;;;23.70;53.50;;;;;;5020281;28;20038;-78
2022/06/21 08:14:50;;;;;;;;;;;23.30;53.50;;;;;;5019246;28;19960;-78
2022/06/21 08:17:31;;;;;;;2.47;1.00;;;23.20;55.40;;;;;;5018216;28;19913;-79
2022/06/21 08:20:08;;;;;;;1.35;0.90;;;22.80;54.50;;;;;;5022586;28;20037;-78
2022/06/21 08:22:39;;;;;;;0.60;0.60;;;22.90;54.00;;;;;;5019373;28;20060;-79
2022/06/21 08:25:24;;;;;;;0.77;0.77;;;22.90;55.00;;;;;;5019423;28;20058;-78
2022/06/21 08:28:15;;;;;;;1.70;0.90;;;23.00;54.30;;;;;;5013573;28;20036;-79
2022/06/21 08:31:00;;;;;;;2.33;1.05;;;23.00;52.60;;;;;;5004036;28;20033;-78
2022/06/21 08:33:25;;;;;;;1.63;0.90;;;22.90;53.80;;;;;;5010537;28;20038;-79
2022/06/21 08:36:01;;;;;;;3.38;1.30;;;22.80;54.00;;;;;;5011628;28;20431;-78
2022/06/21 08:38:35;;;;;;;;;;;22.20;52.20;;;;;;5015571;28;20121;-79
2022/06/21 08:44:36;;;;;;;1.13;1.08;;;21.70;52.90;;;;;;5007227;28;20033;-78
2022/06/21 08:47:39;;;;;;;2.55;1.10;;;21.00;56.00;;;;;;5026650;28;20033;-78
2022/06/21 08:50:22;;;;;;;2.67;1.10;;;20.80;55.70;;;;;;5006748;28;20034;-79
2022/06/21 08:53:01;;;;;;;2.35;0.95;;;20.30;57.30;;;;;;4986089;28;20054;-78
2022/06/21 08:55:42;;;;;;;4.25;1.30;;;20.50;57.20;;;;;;5001480;28;20027;-78
2022/06/21 08:58:26;;;;;;;6.82;4.68;;;20.70;55.40;;;;;;5002014;28;20022;-79
2022/06/21 09:01:16;;;;;;;1.63;1.10;;;20.70;55.20;;;;;;5005933;28;20022;-79
2022/06/21 09:04:11;;;;;;;2.78;1.25;;;20.60;56.30;;;;;;4995373;28;20030;-78
2022/06/21 09:07:17;;;;;;;1.65;1.08;;;21.00;57.30;;;;;;4978401;28;20042;-78
2022/06/21 09:10:02;;;;;;;3.45;0.85;;;20.90;55.10;;;;;;5038749;28;20088;-78
2022/06/21 09:12:37;;;;;;;2.97;1.33;;;21.30;55.70;;;;;;5009512;28;20034;-78
2022/06/21 09:15:18;;;;;;;2.75;0.93;;;21.40;53.70;;;;;;5011331;28;20045;-79
2022/06/21 09:17:55;;;;;;;4.15;1.08;;;21.30;53.80;;;;;;5012735;28;20116;-79
2022/06/21 09:21:03;;;;;;;1.33;0.80;;;21.10;53.40;;;;;;5003099;28;20027;-79
2022/06/21 09:23:49;;;;;;;2.10;0.95;;;20.90;53.20;;;;;;4999274;28;20125;-78
2022/06/21 09:26:32;;;;;;;2.33;0.93;;;20.60;55.00;;;;;;5007592;28;20038;-79
2022/06/21 09:29:08;;;;;;;2.85;0.90;;;20.70;55.60;;;;;;4996449;28;20034;-78
2022/06/21 09:31:52;;;;;;;1.50;0.90;;;20.70;55.00;;;;;;5007308;28;20025;-78
2022/06/21 09:34:50;;;;;;;1.10;1.00;;;20.70;54.10;;;;;;5009431;28;20121;-78
2022/06/21 09:37:21;;;;;;;2.03;1.02;;;20.40;53.10;;;;;;5009999;28;20492;-79
2022/06/21 09:40:14;;;;;;;3.00;1.10;;;20.20;53.40;;;;;;5008303;28;20473;-78
2022/06/21 09:42:59;;;;;;;2.53;1.02;;;20.10;57.00;;;;;;5006622;28;20104;-80
2022/06/21 09:45:35;;;;;;;1.10;1.00;;;20.10;55.00;;;;;;5020895;28;20481;-80
2022/06/21 09:48:19;;;;;;;0.65;0.60;;;20.20;55.80;;;;;;5014799;28;20113;-80
2022/06/21 09:51:10;;;;;;;5.10;0.88;;;20.10;52.60;;;;;;5015051;28;20099;-80
2022/06/21 09:54:05;;;;;;;0.60;0.50;;;20.10;52.80;;;;;;5030180;28;20034;-79
2022/06/21 09:56:48;;;;;;;1.15;0.40;;;20.10;53.00;;;;;;5013406;28;20026;-80
2022/06/21 09:59:23;;;;;;;0.50;0.40;;;20.10;50.80;;;;;;5020103;28;20038;-80
2022/06/21 10:01:58;;;;;;;1.20;0.68;;;20.20;50.90;;;;;;5026875;28;20083;-80
2022/06/21 10:04:53;;;;;;;2.10;0.55;;;20.20;50.70;;;;;;5017051;28;20161;-80
2022/06/21 10:07:37;;;;;;;3.40;0.90;;;20.30;52.00;;;;;;5005545;28;20054;-80
2022/06/21 10:10:13;;;;;;;0.60;0.50;;;20.40;53.80;;;;;;5022137;28;20061;-79
2022/06/21 10:12:48;;;;;;;0.63;0.50;;;20.60;52.30;;;;;;5011339;28;20050;-79
2022/06/21 10:15:47;;;;;;;1.58;0.70;;;20.70;50.70;;;;;;5023684;28;20056;-79
2022/06/21 10:18:40;;;;;;;1.55;0.30;;;20.80;51.20;;;;;;5008838;28;20062;-80
2022/06/21 10:21:29;;;;;;;0.47;0.45;;;20.70;47.10;;;;;;5003328;28;20037;-80
2022/06/21 10:24:21;;;;;;;1.60;0.85;;;20.70;48.20;;;;;;5013908;28;20030;-80
2022/06/21 10:27:18;;;;;;;2.85;0.77;;;20.70;48.90;;;;;;5017091;28;20026;-80
2022/06/21 10:30:13;;;;;;;0.55;0.40;;;20.70;49.20;;;;;;5022525;28;20042;-80
2022/06/21 10:32:57;;;;;;;1.85;0.60;;;20.70;50.20;;;;;;5004550;28;20049;-81
2022/06/21 10:35:26;;;;;;;1.60;0.50;;;20.60;48.90;;;;;;4996789;28;20034;-81
2022/06/21 10:38:11;;;;;;;0.60;0.60;;;20.70;50.90;;;;;;5013304;28;20390;-79
2022/06/21 10:41:01;;;;;;;0.55;0.55;;;20.90;51.80;;;;;;5014857;28;20021;-80
2022/06/21 10:43:50;;;;;;;0.70;0.65;;;21.00;49.30;;;;;;5011550;28;20093;-79
2022/06/21 10:46:49;;;;;;;0.98;0.60;;;21.10;50.60;;;;;;5018827;28;20105;-81
2022/06/21 10:49:57;;;;;;;2.70;0.65;;;21.30;52.00;;;;;;4999635;28;20445;-81
2022/06/21 10:52:31;;;;;;;1.85;0.63;;;21.40;48.40;;;;;;5016929;28;20037;-78
2022/06/21 10:55:08;;;;;;;1.67;0.57;;;21.60;46.80;;;;;;5002255;28;20103;-79
2022/06/21 10:58:02;;;;;;;0.60;0.60;;;21.50;48.40;;;;;;5006750;28;20119;-81
2022/06/21 11:04:09;;;;;;;0.52;0.52;;;21.50;50.80;;;;;;5009335;28;20034;-78
2022/06/21 11:07:03;;;;;;;2.05;0.70;;;21.70;52.20;;;;;;5011075;28;20062;-78
2022/06/21 11:09:49;;;;;;;0.88;0.60;;;21.90;50.40;;;;;;5008318;28;20121;-79
2022/06/21 11:12:54;;;;;;;3.55;0.70;;;21.90;47.10;;;;;;5012201;28;20045;-79
2022/06/21 11:15:33;;;;;;;1.58;1.25;;;21.60;46.70;;;;;;5008106;28;20038;-79
2022/06/21 11:18:16;;;;;;;2.15;0.77;;;21.60;47.30;;;;;;5015678;28;20481;-79
2022/06/21 11:21:08;;;;;;;1.10;0.45;;;21.50;49.00;;;;;;5020382;28;20025;-77
2022/06/21 11:23:48;;;;;;;1.38;0.60;;;21.60;46.70;;;;;;5033371;28;20037;-79
2022/06/21 11:26:38;;;;;;;1.30;0.63;;;21.60;46.50;;;;;;5033637;28;20036;-79
2022/06/21 11:29:34;;;;;;;1.15;0.60;;;21.60;46.30;;;;;;5033078;28;20087;-79
2022/06/21 11:32:08;;;;;;;0.63;0.63;;;21.70;46.80;;;;;;5014787;28;20030;-79
2022/06/21 11:34:40;;;;;;;1.05;0.68;;;21.80;48.90;;;;;;5008654;28;20027;-80
2022/06/21 11:37:34;;;;;;;1.73;0.88;;;21.90;46.60;;;;;;5012824;28;20361;-80
2022/06/21 11:40:35;;;;;;;1.63;0.57;;;21.90;45.70;;;;;;5033296;28;20499;-80
2022/06/21 11:43:03;;;;;;;0.65;0.60;;;21.90;46.10;;;;;;4981936;28;20034;-80
2022/06/21 11:45:41;;;;;;;0.52;0.50;;;22.30;51.10;;;;;;4995072;28;20176;-80
2022/06/21 11:48:28;;;;;;;1.65;0.52;;;22.50;49.40;;;;;;5009222;28;20477;-79
2022/06/21 11:51:00;;;;;;;1.75;0.50;;;22.90;48.50;;;;;;5001732;28;20474;-79
2022/06/21 11:53:44;;;;;;;4.10;0.60;;;23.10;46.70;;;;;;4995186;28;20036;-79
2022/06/21 11:56:34;;;;;;;1.20;0.60;;;23.30;45.10;;;;;;5007285;28;20026;-79
2022/06/21 11:59:15;;;;;;;0.95;0.40;;;23.60;44.90;;;;;;5018446;28;20050;-77
2022/06/21 12:01:47;;;;;;;0.43;0.43;;;23.80;46.80;;;;;;5004835;28;20026;-78
2022/06/21 12:04:22;;;;;;;0.98;0.60;;;23.90;47.90;;;;;;5006695;28;20038;-78
2022/06/21 12:07:35;;;;;;;4.07;1.17;;;24.00;47.30;;;;;;5008146;28;20040;-80
2022/06/21 12:10:10;;;;;;;1.45;0.75;;;24.20;45.40;;;;;;5001008;28;20193;-78
2022/06/21 12:13:07;;;;;;;3.65;0.70;;;24.20;42.50;;;;;;5001449;28;20030;-77
2022/06/21 12:15:41;;;;;;;1.35;0.65;;;23.90;42.90;;;;;;5034082;28;20263;-79
2022/06/21 12:18:35;;;;;;;1.30;0.73;;;23.60;43.90;;;;;;5011592;28;20100;-79
2022/06/21 12:21:11;;;;;;;2.75;0.70;;;23.60;45.00;;;;;;5002759;28;20033;-79
2022/06/21 12:23:49;;;;;;;0.80;0.60;;;23.80;41.80;;;;;;5000016;28;20113;-78
2022/06/21 12:26:19;;;;;;;16.58;8.15;;;24.00;43.50;;;;;;4999119;28;20030;-79
2022/06/21 12:28:45;;;;;;;0.80;0.80;;;24.10;41.80;;;;;;5006916;28;20042;-78
2022/06/21 12:31:37;;;;;;;1.48;0.70;;;24.40;44.50;;;;;;5018226;28;20119;-78
2022/06/21 12:34:13;;;;;;;1.58;0.55;;;24.50;41.40;;;;;;5023697;28;20088;-78
2022/06/21 12:36:53;;;;;;;0.88;0.80;;;24.70;43.80;;;;;;5026671;28;20034;-79
2022/06/21 12:39:52;;;;;;;0.77;0.60;;;24.80;43.10;;;;;;5003953;28;20378;-78
2022/06/21 12:42:42;;;;;;;1.52;0.60;;;24.80;41.60;;;;;;5012713;28;20069;-78
2022/06/21 12:45:29;;;;;;;1.83;0.60;;;24.70;41.20;;;;;;4984709;28;20041;-78
2022/06/21 12:48:14;;;;;;;0.63;0.50;;;24.80;45.40;;;;;;5007932;28;20030;-78
2022/06/21 12:50:48;;;;;;;0.98;0.50;;;25.10;44.60;;;;;;5009994;28;20029;-79
2022/06/21 12:53:51;;;;;;;0.70;0.68;;;25.40;45.80;;;;;;5022122;28;20038;-79
2022/06/21 12:56:35;;;;;;;1.67;0.70;;;25.70;46.10;;;;;;5032031;28;20034;-79
2022/06/21 12:59:26;;;;;;;0.85;0.55;;;25.90;41.40;;;;;;5031479;28;20037;-80
2022/06/21 13:02:33;;;;;;;1.08;0.50;;;26.00;39.10;;;;;;5023395;28;20039;-78
2022/06/21 13:05:23;;;;;;;3.10;0.70;;;25.80;37.30;;;;;;4996175;28;20129;-79
2022/06/21 13:08:01;;;;;;;0.55;0.55;;;25.80;38.20;;;;;;5009127;28;20049;-78
2022/06/21 13:10:54;;;;;;;1.08;0.65;;;26.10;39.00;;;;;;5007468;28;20080;-78
2022/06/21 13:13:59;;;;;;;0.57;0.57;;;26.10;36.00;;;;;;4995421;28;20054;-78
2022/06/21 13:16:40;;;;;;;1.13;0.50;;;26.30;40.00;;;;;;5007101;28;20385;-78
2022/06/21 13:19:12;;;;;;;2.80;0.52;;;26.50;36.10;;;;;;5006722;28;20037;-79
2022/06/21 13:21:57;;;;;;;0.60;0.57;;;26.70;37.80;;;;;;5026718;28;20049;-79
2022/06/21 13:24:48;;;;;;;0.50;0.50;;;26.90;37.50;;;;;;5004549;28;20062;-78
2022/06/21 13:27:56;;;;;;;1.10;0.50;;;27.00;37.40;;;;;;5024230;28;20030;-79
2022/06/21 13:30:30;;;;;;;1.63;0.55;;;27.20;35.60;;;;;;5006381;28;20535;-79
2022/06/21 13:33:16;;;;;;;2.50;0.60;;;27.70;36.40;;;;;;5019204;28;20034;-78
2022/06/21 13:36:05;;;;;;;1.35;0.50;;;27.80;35.90;;;;;;5012193;28;20053;-78
2022/06/21 13:38:52;;;;;;;2.95;0.73;;;27.80;36.00;;;;;;5004478;28;20049;-78
2022/06/21 13:44:58;;;;;;;2.83;0.50;;;27.10;35.60;;;;;;5011618;28;20054;-78
2022/06/21 13:47:48;;;;;;;1.23;0.60;;;27.00;37.90;;;;;;5011424;28;20076;-79
2022/06/21 13:50:14;;;;;;;0.95;0.50;;;26.90;37.40;;;;;;5012472;28;20034;-80
2022/06/21 13:52:42;;;;;;;0.55;0.50;;;27.00;37.60;;;;;;5016834;28;20041;-78
2022/06/21 13:55:30;;;;;;;1.35;0.50;;;27.10;37.40;;;;;;5015309;28;20040;-77
2022/06/21 13:58:32;;;;;;;0.60;0.60;;;27.00;37.30;;;;;;5007322;28;20027;-78
2022/06/21 14:01:36;;;;;;;0.80;0.50;;;26.70;37.80;;;;;;5020562;28;20137;-78
2022/06/21 14:04:28;;;;;;;0.73;0.60;;;26.00;34.00;;;;;;5008359;28;20497;-78
2022/06/21 14:07:32;;;;;;;0.57;0.50;;;25.80;33.90;;;;;;5025976;28;20335;-79
2022/06/21 14:10:16;;;;;;;0.73;0.50;;;25.50;35.00;;;;;;4997752;28;20092;-78